Time;durP1;ratioP1;P1;durP2;ratioP2;P2;SDS_P1;SDS_P2;PMS_P1;PMS_P2;Temp;Humidity;BMP_temperature;BMP_pressure;BME280_temperature;BME280_humidity;BME280_pressure;Samples;Min_cycle;Max_cycle;Signal;HPM_P1;HPM_P2
2022/11/29 00:03:36;;;;;;;31.17;21.40;;;8.30;99.90;;;;;;7366993;32;20099;-59
2022/11/29 00:07:37;;;;;;;37.35;21.87;;;8.30;99.90;;;;;;7375583;32;20416;-59
2022/11/29 00:16:07;;;;;;;42.58;23.62;;;8.40;99.90;;;;;;7372867;32;20099;-59
2022/11/29 00:20:10;;;;;;;36.60;22.85;;;8.50;99.90;;;;;;7382916;32;20276;-59
2022/11/29 00:24:12;;;;;;;36.97;22.95;;;8.30;99.90;;;;;;7377713;32;20099;-59
2022/11/29 00:28:14;;;;;;;37.53;21.85;;;8.40;99.90;;;;;;7379618;32;20209;-59
2022/11/29 00:32:15;;;;;;;40.65;22.98;;;8.30;99.90;;;;;;7381331;32;20125;-59
2022/11/29 00:36:18;;;;;;;36.72;22.70;;;8.40;99.90;;;;;;7382927;32;20133;-59
2022/11/29 00:40:19;;;;;;;37.65;23.55;;;8.30;99.90;;;;;;7378695;32;20602;-60
2022/11/29 00:44:21;;;;;;;38.83;24.33;;;8.20;99.90;;;;;;7379539;32;20129;-59
2022/11/29 00:48:23;;;;;;;38.38;23.52;;;8.20;99.90;;;;;;7385211;32;20139;-59
2022/11/29 00:52:24;;;;;;;37.17;24.45;;;8.20;99.90;;;;;;7378713;32;20129;-60
2022/11/29 00:56:26;;;;;;;40.60;23.87;;;8.30;99.90;;;;;;7375302;32;20108;-59
2022/11/29 01:00:28;;;;;;;47.10;25.20;;;8.30;99.90;;;;;;7376271;32;20470;-59
2022/11/29 01:04:30;;;;;;;41.10;24.87;;;8.30;99.90;;;;;;7384113;32;20210;-59
2022/11/29 01:08:32;;;;;;;45.60;26.00;;;8.30;99.90;;;;;;7379231;32;20130;-59
2022/11/29 01:12:35;;;;;;;43.90;25.05;;;8.30;99.90;;;;;;7380037;32;20129;-59
2022/11/29 01:16:37;;;;;;;45.72;25.00;;;8.20;99.90;;;;;;7381189;32;20592;-59
2022/11/29 01:20:39;;;;;;;40.92;25.10;;;8.40;99.90;;;;;;7380857;32;20108;-59
2022/11/29 01:24:40;;;;;;;44.70;26.83;;;8.40;99.90;;;;;;7373113;32;20193;-59
2022/11/29 01:28:45;;;;;;;49.78;27.25;;;8.40;99.90;;;;;;7372616;32;20103;-59
2022/11/29 01:32:47;;;;;;;47.40;27.40;;;8.30;99.90;;;;;;7383110;32;20517;-59
2022/11/29 01:36:49;;;;;;;47.88;27.58;;;8.30;99.90;;;;;;7383903;32;20111;-59
2022/11/29 01:41:05;;;;;;;41.97;27.30;;;8.30;99.90;;;;;;7376069;32;20202;-59
2022/11/29 01:45:19;;;;;;;56.75;29.05;;;8.30;99.90;;;;;;7364852;32;20466;-59
2022/11/29 01:49:26;;;;;;;46.45;28.08;;;8.20;99.90;;;;;;7372134;32;20198;-59
2022/11/29 01:53:27;;;;;;;49.13;28.90;;;8.20;99.90;;;;;;7379315;32;20424;-59
2022/11/29 01:57:31;;;;;;;44.38;27.50;;;8.20;99.90;;;;;;7380060;32;20213;-59
2022/11/29 02:01:34;;;;;;;55.92;29.27;;;8.30;99.90;;;;;;7380983;32;20107;-59
2022/11/29 02:05:46;;;;;;;50.25;29.33;;;8.30;99.90;;;;;;7368984;32;20593;-59
2022/11/29 02:09:48;;;;;;;53.55;28.73;;;8.30;99.90;;;;;;7375265;32;20104;-59
2022/11/29 02:13:58;;;;;;;52.72;30.48;;;8.30;99.90;;;;;;7378537;32;20486;-59
2022/11/29 02:18:23;;;;;;;56.13;30.40;;;8.30;99.90;;;;;;7373578;32;20550;-59
2022/11/29 02:22:55;;;;;;;55.38;32.17;;;8.30;99.90;;;;;;7371143;32;20107;-59
2022/11/29 02:27:30;;;;;;;52.55;31.62;;;8.40;99.90;;;;;;7375605;32;20099;-59
2022/11/29 02:32:13;;;;;;;54.88;32.55;;;8.40;99.90;;;;;;7377815;32;20119;-59
2022/11/29 02:36:38;;;;;;;51.63;30.25;;;8.40;99.90;;;;;;7296399;32;20135;-59
2022/11/29 02:41:17;;;;;;;59.25;32.10;;;8.30;99.90;;;;;;7339319;32;20607;-59
2022/11/29 02:45:46;;;;;;;71.40;34.03;;;8.30;99.90;;;;;;7371655;32;20107;-59
2022/11/29 02:50:26;;;;;;;59.65;34.05;;;8.40;99.90;;;;;;7380226;32;20227;-59
2022/11/29 02:55:03;;;;;;;68.85;35.45;;;8.30;99.90;;;;;;7364217;32;20103;-59
2022/11/29 02:59:18;;;;;;;66.97;34.78;;;8.30;99.90;;;;;;7361377;32;20252;-59
2022/11/29 03:03:35;;;;;;;64.22;33.35;;;8.40;99.90;;;;;;7379357;32;20148;-60
2022/11/29 03:07:57;;;;;;;67.10;33.70;;;8.30;99.90;;;;;;7376845;32;20477;-59
2022/11/29 03:12:24;;;;;;;88.80;36.10;;;8.30;99.90;;;;;;7372756;32;20286;-59
2022/11/29 03:16:38;;;;;;;77.05;35.90;;;8.30;99.90;;;;;;7376693;32;20117;-59
2022/11/29 03:20:53;;;;;;;82.18;36.97;;;8.30;99.90;;;;;;7373187;32;20115;-59
2022/11/29 03:25:08;;;;;;;83.05;36.88;;;8.30;99.90;;;;;;7366256;32;20478;-59
2022/11/29 03:29:36;;;;;;;87.40;37.35;;;8.30;99.90;;;;;;7367250;32;20108;-59
2022/11/29 03:33:53;;;;;;;98.10;39.60;;;8.30;99.90;;;;;;7370063;32;20099;-59
2022/11/29 03:38:19;;;;;;;87.47;36.47;;;8.40;99.90;;;;;;7374840;32;20103;-59
2022/11/29 03:42:33;;;;;;;92.15;39.38;;;8.40;99.90;;;;;;7369498;32;20315;-59
2022/11/29 03:46:51;;;;;;;96.60;38.10;;;8.40;99.90;;;;;;7375442;32;20141;-59
2022/11/29 03:50:56;;;;;;;95.93;39.58;;;8.40;99.90;;;;;;7368634;32;20541;-58
2022/11/29 03:55:23;;;;;;;92.62;38.00;;;8.40;99.90;;;;;;7367496;32;20134;-59
2022/11/29 03:59:48;;;;;;;105.95;40.42;;;8.40;99.90;;;;;;7364692;32;20550;-59
2022/11/29 04:04:05;;;;;;;98.97;39.80;;;8.40;99.90;;;;;;7379830;32;20251;-58
2022/11/29 04:08:16;;;;;;;103.20;39.07;;;8.40;99.90;;;;;;7378287;32;20111;-59
2022/11/29 04:12:44;;;;;;;109.40;40.28;;;8.50;99.90;;;;;;7373388;32;20128;-59
2022/11/29 04:17:04;;;;;;;;;;;8.50;99.90;;;;;;7355076;32;20108;-59
2022/11/29 04:21:41;;;;;;;116.20;40.85;;;8.50;99.90;;;;;;7379460;32;20002;-59
2022/11/29 04:26:01;;;;;;;107.53;41.72;;;8.40;99.90;;;;;;7375859;32;20103;-59
2022/11/29 04:30:12;;;;;;;116.10;42.83;;;8.40;99.90;;;;;;7379677;32;20130;-58
2022/11/29 04:34:23;;;;;;;124.25;44.72;;;8.40;99.90;;;;;;7378372;32;20576;-59
2022/11/29 04:38:32;;;;;;;126.75;44.40;;;8.40;99.90;;;;;;7373958;32;20183;-60
2022/11/29 04:43:06;;;;;;;119.85;42.25;;;8.40;99.90;;;;;;7374641;32;20141;-60
2022/11/29 04:47:33;;;;;;;128.40;43.25;;;8.40;99.90;;;;;;7377569;32;20546;-58
2022/11/29 04:52:17;;;;;;;126.63;45.07;;;8.50;99.90;;;;;;7375049;32;20111;-58
2022/11/29 04:56:30;;;;;;;142.27;46.97;;;8.40;99.90;;;;;;7358567;32;20125;-59
2022/11/29 05:00:42;;;;;;;134.25;45.40;;;8.40;99.90;;;;;;7369253;32;20561;-59
2022/11/29 05:04:54;;;;;;;125.35;44.53;;;8.40;99.90;;;;;;7376938;32;20134;-59
2022/11/29 05:09:17;;;;;;;117.55;42.10;;;8.50;99.90;;;;;;7374788;32;20107;-58
2022/11/29 05:13:57;;;;;;;120.72;42.90;;;8.40;99.90;;;;;;7376342;32;20166;-58
2022/11/29 05:18:37;;;;;;;112.65;39.88;;;8.40;99.90;;;;;;7367690;32;20107;-59
2022/11/29 05:23:24;;;;;;;111.00;40.55;;;8.40;99.90;;;;;;7370275;32;20660;-60
2022/11/29 05:27:41;;;;;;;116.43;40.90;;;8.30;99.90;;;;;;7368358;32;20103;-60
2022/11/29 05:31:49;;;;;;;116.82;41.08;;;8.40;99.90;;;;;;7379195;32;20103;-59
2022/11/29 05:36:22;;;;;;;119.68;40.65;;;8.30;99.90;;;;;;7380421;32;20621;-59
2022/11/29 05:41:12;;;;;;;114.22;40.58;;;8.30;99.90;;;;;;7377812;32;20719;-60
2022/11/29 05:45:32;;;;;;;108.90;38.63;;;8.20;99.90;;;;;;7328021;32;20326;-59
2022/11/29 05:49:48;;;;;;;127.93;41.72;;;8.20;99.90;;;;;;7369983;32;20135;-60
2022/11/29 05:53:57;;;;;;;118.90;41.47;;;8.20;99.90;;;;;;7374539;32;20128;-58
2022/11/29 05:58:07;;;;;;;118.60;40.08;;;8.20;99.90;;;;;;7381519;32;20239;-59
2022/11/29 06:02:30;;;;;;;122.53;41.55;;;8.20;99.90;;;;;;7380664;32;20494;-59
2022/11/29 06:07:01;;;;;;;116.78;37.63;;;8.20;99.90;;;;;;7369843;32;20134;-59
2022/11/29 06:11:14;;;;;;;124.93;40.15;;;8.10;99.90;;;;;;7369912;32;20162;-59
2022/11/29 06:15:41;;;;;;;118.97;40.22;;;8.20;99.90;;;;;;7366945;32;20129;-60
2022/11/29 06:20:15;;;;;;;126.32;38.17;;;8.20;99.90;;;;;;7375755;32;20981;-59
2022/11/29 06:24:55;;;;;;;107.18;37.28;;;8.30;99.90;;;;;;7356235;32;20119;-60
2022/11/29 06:29:20;;;;;;;114.45;37.75;;;8.20;99.90;;;;;;7369812;32;20190;-59
2022/11/29 06:33:40;;;;;;;110.63;39.38;;;8.10;99.90;;;;;;7379860;32;20103;-60
2022/11/29 06:37:48;;;;;;;105.20;34.92;;;8.20;99.90;;;;;;7381577;32;20107;-60
2022/11/29 06:41:50;;;;;;;108.87;36.33;;;8.10;99.90;;;;;;7374674;32;20493;-59
2022/11/29 06:46:13;;;;;;;104.35;36.17;;;8.10;99.90;;;;;;7370640;32;20221;-59
2022/11/29 06:50:32;;;;;;;107.65;38.22;;;8.10;99.90;;;;;;7373913;32;20523;-59
2022/11/29 06:54:39;;;;;;;105.78;36.95;;;8.00;99.90;;;;;;7368686;32;20254;-59
2022/11/29 06:58:46;;;;;;;106.53;35.65;;;8.00;99.90;;;;;;7366275;32;20194;-60
2022/11/29 07:02:53;;;;;;;;;;;8.00;99.90;;;;;;7377255;32;20133;-59
2022/11/29 07:06:55;;;;;;;110.12;37.83;;;8.00;99.90;;;;;;7368130;32;20006;-59
2022/11/29 07:10:58;;;;;;;104.00;35.53;;;8.00;99.90;;;;;;7364739;32;20248;-59
2022/11/29 07:15:00;;;;;;;102.40;34.40;;;8.00;99.90;;;;;;7374504;32;20137;-61
2022/11/29 07:19:26;;;;;;;94.47;32.28;;;8.00;99.90;;;;;;7380737;32;20197;-61
2022/11/29 07:24:03;;;;;;;96.78;32.92;;;8.00;99.90;;;;;;7368564;32;20170;-61
2022/11/29 07:28:21;;;;;;;100.43;33.25;;;8.00;99.90;;;;;;7378452;32;20226;-61
2022/11/29 07:32:42;;;;;;;98.40;34.53;;;7.90;99.90;;;;;;7371289;32;20544;-62
2022/11/29 07:37:19;;;;;;;90.85;31.62;;;7.90;99.90;;;;;;7376315;32;20125;-62
2022/11/29 07:41:37;;;;;;;92.20;32.88;;;7.90;99.90;;;;;;7366377;32;20144;-62
2022/11/29 07:45:39;;;;;;;106.35;35.90;;;7.90;99.90;;;;;;7371153;32;20099;-62
2022/11/29 07:49:41;;;;;;;115.90;36.85;;;7.90;99.90;;;;;;7368164;32;20197;-62
2022/11/29 07:53:43;;;;;;;109.22;34.22;;;7.90;99.90;;;;;;7379374;32;20158;-62
2022/11/29 07:57:46;;;;;;;112.62;36.58;;;7.90;99.90;;;;;;7373004;32;20111;-62
2022/11/29 08:01:47;;;;;;;115.78;38.38;;;7.90;99.90;;;;;;7372747;32;20126;-62
2022/11/29 08:05:49;;;;;;;122.62;37.47;;;8.00;99.90;;;;;;7375100;32;20209;-62
2022/11/29 08:09:51;;;;;;;118.30;38.08;;;8.00;99.90;;;;;;7373618;32;20103;-62
2022/11/29 08:14:00;;;;;;;117.85;38.13;;;8.00;99.90;;;;;;7376833;32;20636;-62
2022/11/29 08:18:02;;;;;;;119.75;36.50;;;7.90;99.90;;;;;;7380706;32;20194;-62
2022/11/29 08:22:04;;;;;;;109.85;36.20;;;7.90;99.90;;;;;;7373156;32;20115;-62
2022/11/29 08:26:05;;;;;;;112.60;35.50;;;7.90;99.90;;;;;;7375581;32;20103;-62
2022/11/29 08:30:07;;;;;;;125.28;36.88;;;7.90;99.90;;;;;;7381315;32;20103;-62
2022/11/29 08:34:10;;;;;;;121.32;36.85;;;7.90;99.90;;;;;;7381913;32;20146;-62
2022/11/29 08:38:12;;;;;;;116.90;36.15;;;7.90;99.90;;;;;;7375651;32;20205;-62
2022/11/29 08:42:13;;;;;;;113.53;34.92;;;8.00;99.90;;;;;;7376491;32;20111;-62
2022/11/29 08:46:15;;;;;;;118.25;35.90;;;8.00;99.90;;;;;;7384281;32;20477;-62
2022/11/29 08:50:20;;;;;;;105.78;34.38;;;8.00;99.90;;;;;;7372578;32;20546;-62
2022/11/29 08:54:21;;;;;;;107.60;34.15;;;8.10;99.90;;;;;;7377530;32;20115;-64
2022/11/29 08:58:24;;;;;;;103.95;32.28;;;8.10;99.90;;;;;;7381696;32;20107;-62
2022/11/29 09:02:26;;;;;;;108.93;34.70;;;8.10;99.90;;;;;;7374183;32;20220;-61
2022/11/29 09:06:35;;;;;;;118.65;34.60;;;8.10;99.90;;;;;;7376942;32;20526;-63
2022/11/29 09:10:38;;;;;;;122.85;36.08;;;8.20;99.90;;;;;;7377907;32;20221;-62
2022/11/29 09:14:40;;;;;;;116.22;37.53;;;8.00;99.90;;;;;;7371032;32;20213;-61
2022/11/29 09:18:42;;;;;;;123.00;36.88;;;8.10;99.90;;;;;;7375973;32;20206;-61
2022/11/29 09:22:53;;;;;;;133.80;37.17;;;8.10;99.90;;;;;;7375161;32;20218;-62
2022/11/29 09:26:55;;;;;;;132.50;38.03;;;8.10;99.90;;;;;;7379976;32;20119;-61
2022/11/29 09:31:08;;;;;;;142.70;39.28;;;8.00;99.90;;;;;;7373630;32;20137;-61
2022/11/29 09:35:09;;;;;;;124.95;37.67;;;8.00;99.90;;;;;;7382914;32;20107;-62
2022/11/29 09:39:11;;;;;;;125.60;35.17;;;8.00;99.90;;;;;;7370389;32;20111;-61
2022/11/29 09:43:37;;;;;;;133.93;37.92;;;8.10;99.90;;;;;;7378947;32;20220;-61
2022/11/29 09:48:03;;;;;;;123.35;36.50;;;8.00;99.90;;;;;;7381066;32;20157;-62
2022/11/29 09:52:23;;;;;;;118.20;35.35;;;8.00;99.90;;;;;;7383115;32;20846;-62
2022/11/29 09:56:44;;;;;;;122.32;36.58;;;8.00;99.90;;;;;;7380012;32;20138;-61
2022/11/29 10:00:52;;;;;;;119.30;37.25;;;8.10;99.90;;;;;;7375472;32;20174;-61
2022/11/29 10:05:20;;;;;;;130.63;37.70;;;8.10;99.90;;;;;;7374683;32;20472;-61
2022/11/29 10:09:29;;;;;;;113.65;36.55;;;8.10;99.90;;;;;;7370015;32;20107;-61
2022/11/29 10:13:34;;;;;;;122.97;36.88;;;8.10;99.90;;;;;;7387100;32;20193;-61
2022/11/29 10:17:43;;;;;;;129.98;39.40;;;8.20;99.90;;;;;;7376927;32;20107;-61
2022/11/29 10:21:53;;;;;;;125.45;37.65;;;8.30;99.90;;;;;;7377781;32;20137;-61
2022/11/29 10:25:56;;;;;;;128.57;37.78;;;8.30;99.90;;;;;;7377448;32;20129;-61
2022/11/29 10:29:59;;;;;;;140.77;39.65;;;8.30;99.90;;;;;;7370819;32;20111;-61
2022/11/29 10:34:11;;;;;;;138.62;40.85;;;8.40;99.90;;;;;;7376284;32;20125;-61
2022/11/29 10:38:14;;;;;;;137.48;40.42;;;8.40;99.90;;;;;;7377109;32;20277;-61
2022/11/29 10:42:52;;;;;;;131.40;38.20;;;8.40;99.90;;;;;;7372158;32;20116;-61
2022/11/29 10:46:54;;;;;;;125.00;37.03;;;8.50;99.90;;;;;;7377924;32;20106;-63
2022/11/29 10:50:56;;;;;;;113.90;34.47;;;8.50;99.90;;;;;;7373236;32;20096;-62
2022/11/29 10:54:58;;;;;;;111.40;35.67;;;8.50;99.90;;;;;;7370368;32;20495;-61
2022/11/29 10:59:03;;;;;;;115.57;34.17;;;8.60;99.90;;;;;;7373382;32;20098;-62
2022/11/29 11:03:24;;;;;;;111.03;34.15;;;8.50;99.90;;;;;;7377001;32;20545;-61
2022/11/29 11:07:26;;;;;;;105.03;32.15;;;8.50;99.90;;;;;;7368978;32;20103;-61
2022/11/29 11:11:31;;;;;;;101.38;33.60;;;8.50;99.90;;;;;;7375623;32;20170;-61
2022/11/29 11:15:33;;;;;;;105.87;33.45;;;8.60;99.90;;;;;;7375665;32;20131;-63
2022/11/29 11:19:34;;;;;;;102.50;32.00;;;8.60;99.90;;;;;;7374609;32;20139;-61
2022/11/29 11:24:03;;;;;;;104.43;32.35;;;8.60;99.90;;;;;;7370725;32;20206;-61
2022/11/29 11:28:22;;;;;;;100.57;31.92;;;8.50;99.90;;;;;;7377314;32;20462;-62
2022/11/29 11:32:24;;;;;;;101.40;33.08;;;8.50;99.90;;;;;;7371369;32;20133;-62
2022/11/29 11:36:26;;;;;;;99.43;34.35;;;8.50;99.90;;;;;;7366393;32;20107;-61
2022/11/29 11:40:29;;;;;;;98.82;33.83;;;8.50;99.90;;;;;;7370546;32;20993;-61
2022/11/29 11:44:44;;;;;;;97.53;31.70;;;8.50;99.90;;;;;;7374519;32;20131;-63
2022/11/29 11:48:59;;;;;;;96.35;33.45;;;8.50;99.90;;;;;;7366086;32;20596;-62
2022/11/29 11:53:16;;;;;;;95.18;33.13;;;8.60;99.90;;;;;;7370835;32;20107;-62
2022/11/29 11:57:19;;;;;;;94.93;33.22;;;8.60;99.90;;;;;;7368863;32;20134;-62
2022/11/29 12:01:37;;;;;;;95.97;34.78;;;8.50;99.90;;;;;;7368512;32;20278;-62
2022/11/29 12:05:39;;;;;;;94.87;34.13;;;8.50;99.90;;;;;;7372672;32;20201;-64
2022/11/29 12:09:59;;;;;;;96.65;34.15;;;8.50;99.90;;;;;;7371052;32;20132;-63
2022/11/29 12:14:04;;;;;;;93.43;33.75;;;8.50;99.90;;;;;;7386405;32;20099;-64
2022/11/29 12:18:18;;;;;;;92.57;34.17;;;8.50;99.90;;;;;;7380722;32;20182;-62
2022/11/29 12:22:26;;;;;;;103.95;34.90;;;8.50;99.90;;;;;;7391362;32;20134;-63
2022/11/29 12:26:32;;;;;;;97.72;34.17;;;8.50;99.90;;;;;;7381189;32;20129;-62
2022/11/29 12:31:03;;;;;;;90.57;32.88;;;8.50;99.90;;;;;;7383087;32;20194;-63
2022/11/29 12:35:33;;;;;;;79.60;30.70;;;8.50;99.90;;;;;;7378677;32;20107;-62
2022/11/29 12:39:55;;;;;;;99.00;34.00;;;8.50;99.90;;;;;;7378715;32;20129;-63
2022/11/29 12:44:18;;;;;;;102.12;37.75;;;8.50;99.90;;;;;;7386245;32;20230;-63
2022/11/29 12:48:47;;;;;;;113.85;42.72;;;8.60;99.90;;;;;;7382722;32;20103;-63
2022/11/29 12:53:14;;;;;;;90.90;37.78;;;8.60;99.90;;;;;;7381756;32;20553;-62
2022/11/29 12:57:54;;;;;;;89.15;34.30;;;8.60;99.90;;;;;;7386869;32;20143;-62
2022/11/29 13:02:29;;;;;;;71.82;32.45;;;8.60;99.90;;;;;;7300377;32;20124;-62
2022/11/29 13:06:41;;;;;;;76.72;32.63;;;8.60;99.90;;;;;;7345789;32;20111;-63
2022/11/29 13:11:00;;;;;;;75.37;32.95;;;8.60;99.90;;;;;;7380163;32;20198;-62
2022/11/29 13:15:26;;;;;;;89.47;35.35;;;8.50;99.90;;;;;;7375522;32;20440;-65
2022/11/29 13:19:31;;;;;;;86.95;35.45;;;8.50;99.90;;;;;;7377267;32;20108;-63
2022/11/29 13:24:01;;;;;;;87.10;34.47;;;8.50;99.90;;;;;;7371986;32;20202;-65
2022/11/29 13:28:28;;;;;;;82.18;34.80;;;8.40;99.90;;;;;;7375973;32;20099;-63
2022/11/29 13:32:35;;;;;;;94.45;36.50;;;8.50;99.90;;;;;;7370593;32;20129;-64
2022/11/29 13:37:01;;;;;;;86.37;33.60;;;8.50;99.90;;;;;;7372907;32;20396;-57
2022/11/29 13:41:20;;;;;;;78.40;34.03;;;8.60;99.90;;;;;;7374880;32;20229;-57
2022/11/29 13:45:51;;;;;;;82.53;34.42;;;8.60;99.90;;;;;;7381396;32;20099;-58
2022/11/29 13:50:05;;;;;;;94.93;37.85;;;8.50;99.90;;;;;;7376158;32;20103;-57
2022/11/29 13:54:31;;;;;;;88.82;36.15;;;8.60;99.90;;;;;;7371290;32;20104;-57
2022/11/29 13:58:38;;;;;;;83.25;36.50;;;8.50;99.90;;;;;;7377430;32;20141;-63
2022/11/29 14:02:40;;;;;;;87.47;34.83;;;8.60;99.90;;;;;;7372185;32;20206;-58
2022/11/29 14:06:42;;;;;;;83.12;33.35;;;8.50;99.90;;;;;;7384047;32;20107;-58
2022/11/29 14:10:48;;;;;;;77.32;34.53;;;8.50;99.90;;;;;;7375354;32;20133;-59
2022/11/29 14:14:57;;;;;;;74.20;31.25;;;8.50;99.90;;;;;;7380563;32;20145;-63
2022/11/29 14:19:08;;;;;;;71.35;30.88;;;8.60;99.90;;;;;;7377736;32;20504;-62
2022/11/29 14:23:15;;;;;;;69.15;31.60;;;8.60;99.90;;;;;;7374143;32;20129;-63
2022/11/29 14:27:20;;;;;;;;;;;8.60;99.90;;;;;;7379113;32;20517;-62
2022/11/29 14:31:48;;;;;;;78.35;34.53;;;8.60;99.90;;;;;;7378108;32;20010;-62
2022/11/29 14:36:08;;;;;;;;;;;8.50;99.90;;;;;;7382231;32;20566;-63
2022/11/29 14:40:29;;;;;;;82.30;35.50;;;8.50;99.90;;;;;;7372314;32;20311;-63
2022/11/29 14:44:33;;;;;;;89.65;38.08;;;8.40;99.90;;;;;;7368296;32;20107;-63
2022/11/29 14:48:35;;;;;;;94.30;38.50;;;8.40;99.90;;;;;;7370172;32;20137;-62
2022/11/29 14:52:50;;;;;;;96.07;40.83;;;8.40;99.90;;;;;;7370202;32;20194;-62
2022/11/29 14:56:52;;;;;;;91.28;37.75;;;8.40;99.90;;;;;;7382063;32;20823;-61
2022/11/29 15:00:58;;;;;;;79.30;34.10;;;8.30;99.90;;;;;;7383515;32;20121;-63
2022/11/29 15:05:25;;;;;;;82.88;34.20;;;8.30;99.90;;;;;;7369895;32;20099;-63
2022/11/29 15:09:29;;;;;;;85.80;34.65;;;8.30;99.90;;;;;;7367041;32;20265;-63
2022/11/29 15:13:37;;;;;;;81.43;32.83;;;8.30;99.90;;;;;;7372842;32;20125;-63
2022/11/29 15:17:48;;;;;;;76.37;31.70;;;8.40;99.90;;;;;;7365666;32;20172;-62
2022/11/29 15:22:14;;;;;;;79.47;31.55;;;8.30;99.90;;;;;;7368651;32;20122;-63
2022/11/29 15:26:18;;;;;;;73.53;29.98;;;8.20;99.90;;;;;;7381955;32;20221;-62
2022/11/29 15:30:28;;;;;;;63.65;27.77;;;8.10;99.90;;;;;;7371817;32;20145;-63
2022/11/29 15:34:35;;;;;;;60.92;27.90;;;8.10;99.90;;;;;;7371244;32;20196;-62
2022/11/29 15:38:44;;;;;;;56.00;26.55;;;8.20;99.90;;;;;;7370589;32;20221;-62
2022/11/29 15:43:10;;;;;;;63.13;26.62;;;8.20;99.90;;;;;;7372638;32;20202;-60
2022/11/29 15:47:22;;;;;;;59.70;27.77;;;8.10;99.90;;;;;;7367876;32;20182;-60
2022/11/29 15:51:28;;;;;;;61.60;25.15;;;8.10;99.90;;;;;;7375505;32;20390;-59
2022/11/29 15:55:30;;;;;;;62.67;26.05;;;8.10;99.90;;;;;;7372125;32;20127;-61
2022/11/29 15:59:35;;;;;;;57.22;23.98;;;8.10;99.90;;;;;;7367338;32;20236;-60
2022/11/29 16:03:39;;;;;;;63.87;27.35;;;7.90;99.90;;;;;;7375592;32;20220;-60
2022/11/29 16:07:43;;;;;;;59.75;25.95;;;8.00;99.90;;;;;;7370273;32;20198;-60
2022/11/29 16:11:46;;;;;;;59.33;25.12;;;7.90;99.90;;;;;;7374649;32;20179;-60
2022/11/29 16:15:48;;;;;;;62.78;25.95;;;7.90;99.90;;;;;;7370758;32;20240;-59
2022/11/29 16:19:49;;;;;;;65.75;27.65;;;7.90;99.90;;;;;;7373651;32;20128;-60
2022/11/29 16:23:52;;;;;;;62.65;26.17;;;7.90;99.90;;;;;;7376104;32;20604;-60
2022/11/29 16:27:54;;;;;;;64.62;26.08;;;7.90;99.90;;;;;;7376006;32;20540;-60
2022/11/29 16:31:56;;;;;;;57.22;23.87;;;7.90;99.90;;;;;;7370753;32;20108;-59
2022/11/29 16:36:20;;;;;;;62.33;23.02;;;7.90;99.90;;;;;;7376507;32;20111;-60
2022/11/29 16:40:28;;;;;;;56.90;23.10;;;7.80;99.90;;;;;;7371224;32;20701;-59
2022/11/29 16:44:39;;;;;;;58.00;22.75;;;7.80;99.90;;;;;;7377340;32;20169;-61
2022/11/29 16:48:41;;;;;;;60.88;24.63;;;7.80;99.90;;;;;;7378247;32;20099;-60
2022/11/29 16:52:43;;;;;;;58.50;22.17;;;7.80;99.90;;;;;;7371187;32;20321;-60
2022/11/29 16:56:45;;;;;;;54.60;22.15;;;7.80;99.90;;;;;;7376210;32;20115;-59
2022/11/29 17:00:46;;;;;;;52.00;22.08;;;7.70;99.90;;;;;;7367632;32;20102;-59
2022/11/29 17:04:50;;;;;;;51.78;20.05;;;7.80;99.90;;;;;;7379949;32;20746;-60
2022/11/29 17:08:54;;;;;;;48.25;21.10;;;7.70;99.90;;;;;;7374823;32;20119;-60
2022/11/29 17:12:55;;;;;;;51.13;20.45;;;7.70;99.90;;;;;;7380016;32;21999;-60
2022/11/29 17:16:58;;;;;;;53.10;22.27;;;7.60;99.90;;;;;;7378807;32;20141;-60
2022/11/29 17:21:03;;;;;;;59.25;22.62;;;7.50;99.90;;;;;;7380914;32;20202;-61
2022/11/29 17:25:05;;;;;;;59.30;23.48;;;7.40;99.90;;;;;;7380649;32;20579;-60
2022/11/29 17:29:09;;;;;;;52.25;22.60;;;7.40;99.90;;;;;;7373716;32;20287;-60
2022/11/29 17:33:10;;;;;;;56.28;23.33;;;7.50;99.90;;;;;;7367802;32;20122;-60
2022/11/29 17:37:12;;;;;;;64.85;23.67;;;7.50;99.90;;;;;;7382463;32;20103;-60
2022/11/29 17:41:21;;;;;;;50.83;22.17;;;7.50;99.90;;;;;;7374000;32;20206;-62
2022/11/29 17:45:22;;;;;;;61.65;25.10;;;7.40;99.90;;;;;;7378447;32;20125;-61
2022/11/29 17:49:24;;;;;;;56.45;23.30;;;7.40;99.90;;;;;;7377995;32;20198;-60
2022/11/29 17:53:26;;;;;;;53.87;23.67;;;7.40;99.90;;;;;;7370744;32;20150;-60
2022/11/29 17:57:28;;;;;;;58.10;23.50;;;7.40;99.90;;;;;;7375019;32;20107;-61
2022/11/29 18:01:31;;;;;;;64.53;24.42;;;7.40;99.90;;;;;;7377789;32;20127;-63
2022/11/29 18:05:33;;;;;;;54.95;23.80;;;7.50;99.90;;;;;;7371097;32;20401;-60
2022/11/29 18:09:35;;;;;;;53.97;22.42;;;7.40;99.90;;;;;;7372107;32;20261;-62
2022/11/29 18:13:37;;;;;;;49.85;22.62;;;7.40;99.90;;;;;;7377956;32;20202;-60
2022/11/29 18:17:39;;;;;;;54.63;22.35;;;7.50;99.90;;;;;;7382009;32;20672;-60
2022/11/29 18:21:41;;;;;;;66.68;26.12;;;7.30;99.90;;;;;;7374155;32;20129;-60
2022/11/29 18:25:43;;;;;;;62.42;26.45;;;7.20;99.90;;;;;;7375387;32;20507;-60
2022/11/29 18:29:44;;;;;;;62.78;26.65;;;7.00;99.90;;;;;;7363742;32;20216;-58
2022/11/29 18:33:49;;;;;;;54.72;25.75;;;7.00;99.90;;;;;;7379748;32;20171;-59
2022/11/29 18:37:50;;;;;;;62.40;33.17;;;6.90;99.90;;;;;;7375977;32;20111;-59
2022/11/29 18:42:12;;;;;;;55.90;28.52;;;6.80;99.90;;;;;;7380049;32;20099;-60
2022/11/29 18:46:16;;;;;;;46.28;19.80;;;6.60;99.90;;;;;;7373204;32;20194;-61
2022/11/29 18:50:18;;;;;;;39.15;18.60;;;6.50;99.90;;;;;;7373303;32;20138;-59
2022/11/29 18:54:20;;;;;;;41.30;18.98;;;6.30;99.90;;;;;;7382502;32;20103;-59
2022/11/29 18:58:21;;;;;;;37.75;18.05;;;6.30;99.90;;;;;;7365590;32;20133;-59
2022/11/29 19:02:23;;;;;;;36.50;17.62;;;6.10;99.90;;;;;;7373637;32;20128;-59
2022/11/29 19:06:30;;;;;;;43.55;18.25;;;6.10;99.90;;;;;;7371924;32;20198;-58
2022/11/29 19:10:40;;;;;;;41.78;21.00;;;6.10;99.90;;;;;;7366574;32;20118;-58
2022/11/29 19:14:42;;;;;;;57.20;26.25;;;6.00;99.90;;;;;;7368423;32;20099;-59
2022/11/29 19:18:52;;;;;;;57.58;25.12;;;6.00;99.90;;;;;;7374549;32;20144;-58
2022/11/29 19:22:54;;;;;;;66.22;29.92;;;6.10;99.90;;;;;;7372992;32;20111;-59
2022/11/29 19:27:03;;;;;;;50.40;22.20;;;6.20;99.90;;;;;;7366623;32;20123;-59
2022/11/29 19:31:05;;;;;;;68.57;29.50;;;6.30;99.90;;;;;;7369822;32;20639;-59
2022/11/29 19:35:08;;;;;;;67.95;29.92;;;6.30;99.90;;;;;;7375135;32;20107;-58
2022/11/29 19:39:11;;;;;;;81.80;36.25;;;6.40;99.90;;;;;;7376599;32;20511;-60
2022/11/29 19:43:13;;;;;;;67.68;30.37;;;6.50;99.90;;;;;;7380778;32;20602;-58
2022/11/29 19:47:15;;;;;;;78.68;30.80;;;6.70;99.90;;;;;;7372681;32;20189;-59
2022/11/29 19:51:17;;;;;;;66.20;32.30;;;6.70;99.90;;;;;;7378478;32;20470;-59
2022/11/29 19:55:19;;;;;;;59.60;30.70;;;6.90;99.90;;;;;;7376071;32;20134;-59
2022/11/29 19:59:20;;;;;;;58.85;24.83;;;6.90;99.90;;;;;;7372225;32;20592;-59
2022/11/29 20:03:22;;;;;;;62.80;29.50;;;7.00;99.90;;;;;;7373746;32;20106;-59
2022/11/29 20:07:24;;;;;;;64.03;25.58;;;6.90;99.90;;;;;;7371403;32;20115;-58
2022/11/29 20:11:26;;;;;;;54.45;25.30;;;7.00;99.90;;;;;;7365745;32;20111;-59
2022/11/29 20:15:27;;;;;;;55.05;26.77;;;7.00;99.90;;;;;;7371250;32;20552;-60
2022/11/29 20:19:29;;;;;;;63.78;27.50;;;7.00;99.90;;;;;;7380139;32;20178;-58
2022/11/29 20:23:32;;;;;;;56.15;25.37;;;7.00;99.90;;;;;;7372402;32;20106;-58
2022/11/29 20:27:33;;;;;;;58.10;26.15;;;6.90;99.90;;;;;;7370191;32;20186;-60
2022/11/29 20:31:37;;;;;;;63.35;27.00;;;7.00;99.90;;;;;;7373783;32;20202;-60
2022/11/29 20:35:39;;;;;;;59.95;27.13;;;7.00;99.90;;;;;;7378444;32;20110;-60
2022/11/29 20:39:47;;;;;;;62.85;26.95;;;7.00;99.90;;;;;;7375852;32;20179;-58
2022/11/29 20:43:56;;;;;;;61.85;27.77;;;7.00;99.90;;;;;;7381509;32;20122;-59
2022/11/29 20:48:18;;;;;;;58.25;26.98;;;7.00;99.90;;;;;;7376138;32;20103;-59
2022/11/29 20:52:41;;;;;;;57.95;25.75;;;6.90;99.90;;;;;;7382394;32;20529;-60
2022/11/29 20:56:42;;;;;;;59.85;25.88;;;7.00;99.90;;;;;;7382990;32;20095;-59
2022/11/29 21:00:45;;;;;;;65.15;33.50;;;7.00;99.90;;;;;;7372313;32;20708;-59
2022/11/29 21:04:47;;;;;;;64.28;28.87;;;7.00;99.90;;;;;;7371481;32;20490;-60
2022/11/29 21:08:50;;;;;;;66.55;35.63;;;6.90;99.90;;;;;;7385462;32;20107;-60
2022/11/29 21:12:51;;;;;;;54.40;30.45;;;7.00;99.90;;;;;;7373676;32;20463;-60
2022/11/29 21:16:53;;;;;;;64.03;30.73;;;7.00;99.90;;;;;;7382993;32;20107;-60
2022/11/29 21:21:08;;;;;;;66.12;34.55;;;7.00;99.90;;;;;;7378596;32;20182;-60
2022/11/29 21:25:22;;;;;;;55.10;30.23;;;7.00;99.90;;;;;;7377920;32;20136;-60
2022/11/29 21:29:24;;;;;;;70.75;34.45;;;7.00;99.90;;;;;;7386100;32;20510;-59
2022/11/29 21:33:26;;;;;;;63.35;32.55;;;7.00;99.90;;;;;;7378697;32;20620;-59